Zielona Gora, Poland
Current Conditions -  °F | °C
As of 6:00 PM on Saturday 25 Oct 2014 (Local Time) from EPZG Reporting Station
Haze Haze  
Wind Chill: 36°   Ceiling: Unl
Heat Index: 39°   Visibility: 2.1mi
Dew Point: 37°   Wind: 5mph
Humidity: 93%   Direction: 80°E
Pressure: 30.21"   Gusts: NA
Location:  51.94°N, 15.49°E
Report Text: EPZG 251600Z 08004KT 3500 BR NSC 04/03 Q1023
Loading
Personal Weather Stations






























Interactive Weather Map
Tropical Storm Tracking
New forecast layout! Learn more

10-Day Weather Forecast

Advertisements
Track Severe Weather on mobile